sensor_id;sensor_type;location;lat;lon;timestamp;pressure;altitude;pressure_sealevel;temperature;humidity
46778;BME280;32536;47.128;8.746;2023-10-31T00:01:50;90393.53;;;12.78;55.80
46778;BME280;32536;47.128;8.746;2023-10-31T00:04:17;90388.88;;;12.79;55.90
46778;BME280;32536;47.128;8.746;2023-10-31T00:06:43;90387.69;;;12.80;55.89
46778;BME280;32536;47.128;8.746;2023-10-31T00:09:10;90386.19;;;12.79;55.69
46778;BME280;32536;47.128;8.746;2023-10-31T00:11:37;90384.28;;;12.79;55.90
46778;BME280;32536;47.128;8.746;2023-10-31T00:14:04;90384.28;;;12.79;55.82
46778;BME280;32536;47.128;8.746;2023-10-31T00:16:30;90398.75;;;12.73;55.70
46778;BME280;32536;47.128;8.746;2023-10-31T00:18:57;90393.50;;;12.69;55.51
46778;BME280;32536;47.128;8.746;2023-10-31T00:21:24;90380.84;;;12.60;55.92
46778;BME280;32536;47.128;8.746;2023-10-31T00:23:51;90373.81;;;12.54;55.91
46778;BME280;32536;47.128;8.746;2023-10-31T00:26:17;90388.88;;;12.51;56.48
46778;BME280;32536;47.128;8.746;2023-10-31T00:28:44;90393.50;;;12.41;56.23
46778;BME280;32536;47.128;8.746;2023-10-31T00:31:11;90402.59;;;12.35;56.20
46778;BME280;32536;47.128;8.746;2023-10-31T00:33:39;90392.13;;;12.27;56.17
46778;BME280;32536;47.128;8.746;2023-10-31T00:36:06;90401.97;;;12.21;55.98
46778;BME280;32536;47.128;8.746;2023-10-31T00:38:33;90406.16;;;12.22;56.15
46778;BME280;32536;47.128;8.746;2023-10-31T00:41:00;90411.53;;;12.22;56.37
46778;BME280;32536;47.128;8.746;2023-10-31T00:43:27;90427.59;;;12.13;56.37
46778;BME280;32536;47.128;8.746;2023-10-31T00:45:53;90448.75;;;12.01;56.66
46778;BME280;32536;47.128;8.746;2023-10-31T00:48:20;90464.50;;;11.90;56.55
46778;BME280;32536;47.128;8.746;2023-10-31T00:50:47;90457.13;;;11.81;57.05
46778;BME280;32536;47.128;8.746;2023-10-31T00:53:14;90452.59;;;11.69;56.79
46778;BME280;32536;47.128;8.746;2023-10-31T00:55:42;90449.56;;;11.58;57.37
46778;BME280;32536;47.128;8.746;2023-10-31T00:58:10;90450.44;;;11.54;57.77
46778;BME280;32536;47.128;8.746;2023-10-31T01:00:37;90452.75;;;11.43;57.65
46778;BME280;32536;47.128;8.746;2023-10-31T01:03:04;90458.69;;;11.38;57.54
46778;BME280;32536;47.128;8.746;2023-10-31T01:05:30;90460.56;;;11.28;57.82
46778;BME280;32536;47.128;8.746;2023-10-31T01:07:57;90462.63;;;11.24;58.12
46778;BME280;32536;47.128;8.746;2023-10-31T01:10:24;90486.25;;;11.16;58.06
46778;BME280;32536;47.128;8.746;2023-10-31T01:12:50;90477.97;;;11.24;57.65
46778;BME280;32536;47.128;8.746;2023-10-31T01:15:17;90487.19;;;11.23;58.22
46778;BME280;32536;47.128;8.746;2023-10-31T01:17:44;90490.75;;;11.19;57.43
46778;BME280;32536;47.128;8.746;2023-10-31T01:20:11;90493.34;;;11.10;57.84
46778;BME280;32536;47.128;8.746;2023-10-31T01:22:38;90477.53;;;11.03;58.01
46778;BME280;32536;47.128;8.746;2023-10-31T01:25:05;90481.50;;;10.98;57.85
46778;BME280;32536;47.128;8.746;2023-10-31T01:27:32;90477.88;;;10.92;58.25
46778;BME280;32536;47.128;8.746;2023-10-31T01:29:59;90459.88;;;10.93;57.97
46778;BME280;32536;47.128;8.746;2023-10-31T01:32:25;90481.63;;;10.95;57.83
46778;BME280;32536;47.128;8.746;2023-10-31T01:34:52;90488.19;;;10.94;57.86
46778;BME280;32536;47.128;8.746;2023-10-31T01:37:19;90493.59;;;11.03;57.38
46778;BME280;32536;47.128;8.746;2023-10-31T01:39:46;90491.34;;;11.01;57.88
46778;BME280;32536;47.128;8.746;2023-10-31T01:42:14;90487.78;;;11.04;57.34
46778;BME280;32536;47.128;8.746;2023-10-31T01:44:41;90489.97;;;10.97;59.38
46778;BME280;32536;47.128;8.746;2023-10-31T01:47:08;90489.97;;;10.97;58.38
46778;BME280;32536;47.128;8.746;2023-10-31T01:49:36;90483.44;;;10.98;57.92
46778;BME280;32536;47.128;8.746;2023-10-31T01:52:04;90483.19;;;11.05;57.63
46778;BME280;32536;47.128;8.746;2023-10-31T01:54:32;90485.56;;;11.03;57.51
46778;BME280;32536;47.128;8.746;2023-10-31T01:57:01;90486.63;;;11.05;57.93
46778;BME280;32536;47.128;8.746;2023-10-31T01:59:29;90491.84;;;11.09;57.18
46778;BME280;32536;47.128;8.746;2023-10-31T02:01:56;90496.34;;;11.12;57.52
46778;BME280;32536;47.128;8.746;2023-10-31T02:04:24;90491.00;;;11.12;56.96
46778;BME280;32536;47.128;8.746;2023-10-31T02:06:51;90491.84;;;11.09;57.26
46778;BME280;32536;47.128;8.746;2023-10-31T02:09:17;90496.34;;;11.12;57.11
46778;BME280;32536;47.128;8.746;2023-10-31T02:11:49;90497.97;;;11.10;57.13
46778;BME280;32536;47.128;8.746;2023-10-31T02:14:16;90508.69;;;11.10;57.25
46778;BME280;32536;47.128;8.746;2023-10-31T02:16:44;90512.44;;;11.12;57.42
46778;BME280;32536;47.128;8.746;2023-10-31T02:19:12;90508.69;;;11.10;57.69
46778;BME280;32536;47.128;8.746;2023-10-31T02:21:45;90509.13;;;11.08;57.15
46778;BME280;32536;47.128;8.746;2023-10-31T02:24:12;90510.19;;;11.11;56.63
46778;BME280;32536;47.128;8.746;2023-10-31T02:26:38;90511.88;;;11.17;56.88
46778;BME280;32536;47.128;8.746;2023-10-31T02:29:05;90509.81;;;11.21;57.10
46778;BME280;32536;47.128;8.746;2023-10-31T02:31:32;90507.78;;;11.26;56.91
46778;BME280;32536;47.128;8.746;2023-10-31T02:33:59;90518.06;;;11.27;56.40
46778;BME280;32536;47.128;8.746;2023-10-31T02:36:26;90512.38;;;11.25;56.84
46778;BME280;32536;47.128;8.746;2023-10-31T02:38:52;90520.25;;;11.19;57.14
46778;BME280;32536;47.128;8.746;2023-10-31T02:41:19;90511.88;;;11.17;57.16
46778;BME280;32536;47.128;8.746;2023-10-31T02:43:47;90514.13;;;11.19;56.91
46778;BME280;32536;47.128;8.746;2023-10-31T02:46:13;90515.28;;;11.18;56.97
46778;BME280;32536;47.128;8.746;2023-10-31T02:48:41;90515.75;;;11.16;57.56
46778;BME280;32536;47.128;8.746;2023-10-31T02:51:08;90520.03;;;11.14;57.33
46778;BME280;32536;47.128;8.746;2023-10-31T02:53:35;90519.91;;;11.17;57.28
46778;BME280;32536;47.128;8.746;2023-10-31T02:56:02;90532.88;;;11.19;57.10
46778;BME280;32536;47.128;8.746;2023-10-31T02:58:29;90533.53;;;11.23;57.36
46778;BME280;32536;47.128;8.746;2023-10-31T03:00:56;90530.72;;;11.27;57.23
46778;BME280;32536;47.128;8.746;2023-10-31T03:03:22;90527.41;;;11.23;57.47
46778;BME280;32536;47.128;8.746;2023-10-31T03:05:49;90535.06;;;11.11;57.65
46778;BME280;32536;47.128;8.746;2023-10-31T03:08:16;90541.28;;;11.08;57.42
46778;BME280;32536;47.128;8.746;2023-10-31T03:10:47;90544.28;;;11.10;57.35
46778;BME280;32536;47.128;8.746;2023-10-31T03:13:18;90545.53;;;11.18;57.50
46778;BME280;32536;47.128;8.746;2023-10-31T03:15:46;90544.03;;;11.17;56.89
46778;BME280;32536;47.128;8.746;2023-10-31T03:18:13;90543.44;;;11.13;56.39
46778;BME280;32536;47.128;8.746;2023-10-31T03:20:42;90547.28;;;11.12;57.13
46778;BME280;32536;47.128;8.746;2023-10-31T03:23:11;90550.91;;;11.18;56.76
46778;BME280;32536;47.128;8.746;2023-10-31T03:25:39;90547.66;;;11.24;56.94
46778;BME280;32536;47.128;8.746;2023-10-31T03:28:24;90551.75;;;11.15;55.49
46778;BME280;32536;47.128;8.746;2023-10-31T03:30:50;90559.19;;;11.11;55.86
46778;BME280;32536;47.128;8.746;2023-10-31T03:33:17;90558.75;;;11.13;56.51
46778;BME280;32536;47.128;8.746;2023-10-31T03:35:44;90562.19;;;11.13;56.44
46778;BME280;32536;47.128;8.746;2023-10-31T03:38:11;90561.94;;;11.20;56.29
46778;BME280;32536;47.128;8.746;2023-10-31T03:40:38;90571.59;;;11.18;56.09
46778;BME280;32536;47.128;8.746;2023-10-31T03:43:05;90570.03;;;11.08;55.91
46778;BME280;32536;47.128;8.746;2023-10-31T03:45:32;90569.28;;;11.07;55.94
46778;BME280;32536;47.128;8.746;2023-10-31T03:47:58;90586.72;;;11.12;55.84
46778;BME280;32536;47.128;8.746;2023-10-31T03:50:25;90587.91;;;11.11;56.26
46778;BME280;32536;47.128;8.746;2023-10-31T03:52:52;90591.22;;;11.15;56.12
46778;BME280;32536;47.128;8.746;2023-10-31T03:55:19;90593.25;;;11.24;56.67
46778;BME280;32536;47.128;8.746;2023-10-31T03:57:46;90596.66;;;11.24;55.52
46778;BME280;32536;47.128;8.746;2023-10-31T04:00:13;90593.69;;;11.22;55.03
46778;BME280;32536;47.128;8.746;2023-10-31T04:02:40;90599.03;;;11.22;55.73
46778;BME280;32536;47.128;8.746;2023-10-31T04:05:07;90615.69;;;11.17;55.69
46778;BME280;32536;47.128;8.746;2023-10-31T04:07:34;90613.19;;;11.23;56.01
46778;BME280;32536;47.128;8.746;2023-10-31T04:10:00;90607.09;;;11.22;55.40
46778;BME280;32536;47.128;8.746;2023-10-31T04:12:28;90613.28;;;11.19;55.76
46778;BME280;32536;47.128;8.746;2023-10-31T04:14:55;90625.75;;;11.13;55.03
46778;BME280;32536;47.128;8.746;2023-10-31T04:17:22;90611.41;;;11.07;54.18
46778;BME280;32536;47.128;8.746;2023-10-31T04:19:49;90612.91;;;11.08;55.24
46778;BME280;32536;47.128;8.746;2023-10-31T04:22:16;90619.13;;;11.04;54.71
46778;BME280;32536;47.128;8.746;2023-10-31T04:24:42;90609.59;;;11.03;55.74
46778;BME280;32536;47.128;8.746;2023-10-31T04:27:09;90614.19;;;11.03;55.53
46778;BME280;32536;47.128;8.746;2023-10-31T04:29:36;90614.84;;;11.07;54.91
46778;BME280;32536;47.128;8.746;2023-10-31T04:32:03;90617.94;;;11.05;55.11
46778;BME280;32536;47.128;8.746;2023-10-31T04:34:30;90609.91;;;11.05;54.85
46778;BME280;32536;47.128;8.746;2023-10-31T04:36:56;90619.75;;;11.09;54.95
46778;BME280;32536;47.128;8.746;2023-10-31T04:39:23;90619.75;;;11.09;54.78
46778;BME280;32536;47.128;8.746;2023-10-31T04:41:50;90618.59;;;11.10;55.14
46778;BME280;32536;47.128;8.746;2023-10-31T04:44:17;90624.56;;;11.14;54.85
46778;BME280;32536;47.128;8.746;2023-10-31T04:46:43;90607.81;;;11.23;54.82
46778;BME280;32536;47.128;8.746;2023-10-31T04:49:10;90611.25;;;11.23;54.51
46778;BME280;32536;47.128;8.746;2023-10-31T04:51:37;90608.59;;;11.23;54.98
46778;BME280;32536;47.128;8.746;2023-10-31T04:54:05;90602.78;;;11.25;54.49
46778;BME280;32536;47.128;8.746;2023-10-31T04:56:32;90615.97;;;11.32;54.84
46778;BME280;32536;47.128;8.746;2023-10-31T04:58:59;90606.97;;;11.26;54.40
46778;BME280;32536;47.128;8.746;2023-10-31T05:01:26;90604.69;;;11.24;54.36
46778;BME280;32536;47.128;8.746;2023-10-31T05:04:11;90606.03;;;11.19;51.22
46778;BME280;32536;47.128;8.746;2023-10-31T05:06:38;90610.38;;;11.26;54.12
46778;BME280;32536;47.128;8.746;2023-10-31T05:09:05;90609.00;;;11.21;54.21
46778;BME280;32536;47.128;8.746;2023-10-31T05:11:31;90611.25;;;11.23;54.06
46778;BME280;32536;47.128;8.746;2023-10-31T05:13:58;90615.63;;;11.30;54.06
46778;BME280;32536;47.128;8.746;2023-10-31T05:16:25;90621.00;;;11.30;53.54
46778;BME280;32536;47.128;8.746;2023-10-31T05:18:52;90618.75;;;11.28;54.10
46778;BME280;32536;47.128;8.746;2023-10-31T05:21:19;90622.38;;;11.34;53.88
46778;BME280;32536;47.128;8.746;2023-10-31T05:23:46;90613.16;;;11.35;53.86
46778;BME280;32536;47.128;8.746;2023-10-31T05:26:13;90616.47;;;11.40;54.16
46778;BME280;32536;47.128;8.746;2023-10-31T05:28:40;90620.53;;;11.44;53.75
46778;BME280;32536;47.128;8.746;2023-10-31T05:31:06;90607.31;;;11.50;54.11
46778;BME280;32536;47.128;8.746;2023-10-31T05:33:33;90607.69;;;11.61;53.93
46778;BME280;32536;47.128;8.746;2023-10-31T05:36:00;90623.22;;;11.66;53.74
46778;BME280;32536;47.128;8.746;2023-10-31T05:38:28;90607.94;;;11.76;54.15
46778;BME280;32536;47.128;8.746;2023-10-31T05:40:54;90615.31;;;11.85;54.52
46778;BME280;32536;47.128;8.746;2023-10-31T05:43:21;90616.56;;;11.93;53.83
46778;BME280;32536;47.128;8.746;2023-10-31T05:45:48;90618.16;;;12.04;54.32
46778;BME280;32536;47.128;8.746;2023-10-31T05:48:14;90618.66;;;12.11;53.83
46778;BME280;32536;47.128;8.746;2023-10-31T05:50:42;90632.69;;;12.15;53.80
46778;BME280;32536;47.128;8.746;2023-10-31T05:53:09;90638.25;;;12.21;54.26
46778;BME280;32536;47.128;8.746;2023-10-31T05:55:40;90640.81;;;12.25;54.28
46778;BME280;32536;47.128;8.746;2023-10-31T05:58:06;90632.63;;;12.28;54.40
46778;BME280;32536;47.128;8.746;2023-10-31T06:00:33;90628.31;;;12.31;54.04
46778;BME280;32536;47.128;8.746;2023-10-31T06:03:01;90624.75;;;12.34;53.77
46778;BME280;32536;47.128;8.746;2023-10-31T06:05:28;90635.50;;;12.34;53.83
46778;BME280;32536;47.128;8.746;2023-10-31T06:07:55;90631.91;;;12.37;54.27
46778;BME280;32536;47.128;8.746;2023-10-31T06:10:21;90640.56;;;12.41;53.94
46778;BME280;32536;47.128;8.746;2023-10-31T06:12:48;90638.22;;;12.43;53.46
46778;BME280;32536;47.128;8.746;2023-10-31T06:15:15;90630.91;;;12.44;53.69
46778;BME280;32536;47.128;8.746;2023-10-31T06:17:42;90630.16;;;12.43;52.86
46778;BME280;32536;47.128;8.746;2023-10-31T06:20:09;90637.16;;;12.41;52.94
46778;BME280;32536;47.128;8.746;2023-10-31T06:22:36;90636.09;;;12.38;53.15
46778;BME280;32536;47.128;8.746;2023-10-31T06:25:03;90648.28;;;12.30;52.61
46778;BME280;32536;47.128;8.746;2023-10-31T06:27:30;90652.72;;;12.24;52.93
46778;BME280;32536;47.128;8.746;2023-10-31T06:29:57;90655.84;;;12.22;53.14
46778;BME280;32536;47.128;8.746;2023-10-31T06:32:23;90660.03;;;12.23;53.22
46778;BME280;32536;47.128;8.746;2023-10-31T06:34:50;90665.41;;;12.23;53.79
46778;BME280;32536;47.128;8.746;2023-10-31T06:37:17;90662.72;;;12.23;53.53
46778;BME280;32536;47.128;8.746;2023-10-31T06:39:44;90666.75;;;12.28;53.35
46778;BME280;32536;47.128;8.746;2023-10-31T06:42:11;90666.75;;;12.28;53.68
46778;BME280;32536;47.128;8.746;2023-10-31T06:44:38;90667.34;;;12.23;53.45
46778;BME280;32536;47.128;8.746;2023-10-31T06:47:04;90663.91;;;12.22;53.72
46778;BME280;32536;47.128;8.746;2023-10-31T06:49:31;90678.84;;;12.23;53.77
46778;BME280;32536;47.128;8.746;2023-10-31T06:51:58;90688.41;;;12.24;54.10
46778;BME280;32536;47.128;8.746;2023-10-31T06:54:24;90692.13;;;12.27;53.60
46778;BME280;32536;47.128;8.746;2023-10-31T06:56:51;90688.56;;;12.30;53.78
46778;BME280;32536;47.128;8.746;2023-10-31T06:59:18;90694.56;;;12.34;54.04
46778;BME280;32536;47.128;8.746;2023-10-31T07:01:45;90694.44;;;12.38;53.83
46778;BME280;32536;47.128;8.746;2023-10-31T07:04:18;90702.81;;;12.40;53.63
46778;BME280;32536;47.128;8.746;2023-10-31T07:06:45;90704.75;;;12.39;53.99
46778;BME280;32536;47.128;8.746;2023-10-31T07:09:12;90706.78;;;12.35;53.63
46778;BME280;32536;47.128;8.746;2023-10-31T07:11:39;90706.63;;;12.29;53.75
46778;BME280;32536;47.128;8.746;2023-10-31T07:14:06;90707.03;;;12.28;53.64
46778;BME280;32536;47.128;8.746;2023-10-31T07:16:32;90705.56;;;12.27;53.98
46778;BME280;32536;47.128;8.746;2023-10-31T07:18:59;90705.25;;;12.25;54.23
46778;BME280;32536;47.128;8.746;2023-10-31T07:21:26;90709.72;;;12.28;53.78
46778;BME280;32536;47.128;8.746;2023-10-31T07:23:52;90709.72;;;12.28;54.07
46778;BME280;32536;47.128;8.746;2023-10-31T07:26:19;90715.88;;;12.28;54.04
46778;BME280;32536;47.128;8.746;2023-10-31T07:28:46;90705.56;;;12.27;54.43
46778;BME280;32536;47.128;8.746;2023-10-31T07:31:14;90711.78;;;12.24;54.36
46778;BME280;32536;47.128;8.746;2023-10-31T07:33:44;90714.94;;;12.22;54.22
46778;BME280;32536;47.128;8.746;2023-10-31T07:36:11;90713.53;;;12.17;54.13
46778;BME280;32536;47.128;8.746;2023-10-31T07:38:38;90720.09;;;12.16;54.41
46778;BME280;32536;47.128;8.746;2023-10-31T07:41:05;90722.34;;;12.18;54.07
46778;BME280;32536;47.128;8.746;2023-10-31T07:43:32;90715.50;;;12.17;54.10
46778;BME280;32536;47.128;8.746;2023-10-31T07:45:58;90716.78;;;12.12;54.17
46778;BME280;32536;47.128;8.746;2023-10-31T07:48:25;90726.03;;;12.11;54.06
46778;BME280;32536;47.128;8.746;2023-10-31T07:50:52;90727.22;;;12.10;54.07
46778;BME280;32536;47.128;8.746;2023-10-31T07:53:18;90722.91;;;12.13;53.87
46778;BME280;32536;47.128;8.746;2023-10-31T07:55:45;90734.69;;;12.15;54.17
46778;BME280;32536;47.128;8.746;2023-10-31T07:58:12;90730.66;;;12.11;54.22
46778;BME280;32536;47.128;8.746;2023-10-31T08:00:39;90733.75;;;12.09;54.09
46778;BME280;32536;47.128;8.746;2023-10-31T08:03:05;90745.69;;;12.08;53.84
46778;BME280;32536;47.128;8.746;2023-10-31T08:05:32;90741.19;;;12.05;54.46
46778;BME280;32536;47.128;8.746;2023-10-31T08:07:59;90740.75;;;12.07;54.43
46778;BME280;32536;47.128;8.746;2023-10-31T08:10:26;90747.63;;;12.08;54.37
46778;BME280;32536;47.128;8.746;2023-10-31T08:12:53;90753.75;;;12.08;54.11
46778;BME280;32536;47.128;8.746;2023-10-31T08:15:19;90759.88;;;12.09;54.04
46778;BME280;32536;47.128;8.746;2023-10-31T08:17:46;90757.31;;;12.05;53.95
46778;BME280;32536;47.128;8.746;2023-10-31T08:20:13;90761.50;;;12.06;53.99
46778;BME280;32536;47.128;8.746;2023-10-31T08:22:40;90761.78;;;12.08;53.99
46778;BME280;32536;47.128;8.746;2023-10-31T08:25:08;90759.00;;;12.12;54.15
46778;BME280;32536;47.128;8.746;2023-10-31T08:27:35;90748.13;;;12.15;53.79
46778;BME280;32536;47.128;8.746;2023-10-31T08:30:02;90746.94;;;12.16;53.84
46778;BME280;32536;47.128;8.746;2023-10-31T08:32:29;90763.63;;;12.11;53.43
46778;BME280;32536;47.128;8.746;2023-10-31T08:34:56;90760.31;;;12.07;53.70
46778;BME280;32536;47.128;8.746;2023-10-31T08:37:23;90764.28;;;12.03;53.99
46778;BME280;32536;47.128;8.746;2023-10-31T08:39:50;90762.16;;;11.97;53.85
46778;BME280;32536;47.128;8.746;2023-10-31T08:42:16;90760.53;;;12.00;53.95
46778;BME280;32536;47.128;8.746;2023-10-31T08:44:43;90770.84;;;12.01;54.31
46778;BME280;32536;47.128;8.746;2023-10-31T08:47:10;90773.09;;;12.03;53.83
46778;BME280;32536;47.128;8.746;2023-10-31T08:49:37;90775.66;;;12.07;53.94
46778;BME280;32536;47.128;8.746;2023-10-31T08:52:04;90776.31;;;12.11;54.07
46778;BME280;32536;47.128;8.746;2023-10-31T08:54:31;90783.78;;;12.16;53.96
46778;BME280;32536;47.128;8.746;2023-10-31T08:56:58;90780.56;;;12.21;53.88
46778;BME280;32536;47.128;8.746;2023-10-31T08:59:24;90770.13;;;12.23;53.73
46778;BME280;32536;47.128;8.746;2023-10-31T09:01:51;90771.50;;;12.28;54.18
46778;BME280;32536;47.128;8.746;2023-10-31T09:04:27;90764.94;;;12.29;53.64
46778;BME280;32536;47.128;8.746;2023-10-31T09:06:54;90760.94;;;12.33;54.11
46778;BME280;32536;47.128;8.746;2023-10-31T09:09:20;90762.78;;;12.37;54.09
46778;BME280;32536;47.128;8.746;2023-10-31T09:11:47;90763.41;;;12.41;54.43
46778;BME280;32536;47.128;8.746;2023-10-31T09:14:14;90768.19;;;12.46;54.21
46778;BME280;32536;47.128;8.746;2023-10-31T09:16:41;90773.88;;;12.48;54.26
46778;BME280;32536;47.128;8.746;2023-10-31T09:19:07;90769.25;;;12.48;53.56
46778;BME280;32536;47.128;8.746;2023-10-31T09:21:34;90761.53;;;12.51;53.97
46778;BME280;32536;47.128;8.746;2023-10-31T09:24:02;90775.84;;;12.47;53.73
46778;BME280;32536;47.128;8.746;2023-10-31T09:26:29;90761.53;;;12.51;53.99
46778;BME280;32536;47.128;8.746;2023-10-31T09:28:55;90770.03;;;12.49;54.21
46778;BME280;32536;47.128;8.746;2023-10-31T09:31:22;90770.31;;;12.51;54.41
46778;BME280;32536;47.128;8.746;2023-10-31T09:33:49;90768.59;;;12.57;54.44
46778;BME280;32536;47.128;8.746;2023-10-31T09:36:16;90773.53;;;12.59;53.98
46778;BME280;32536;47.128;8.746;2023-10-31T09:38:43;90766.97;;;12.60;54.02
46778;BME280;32536;47.128;8.746;2023-10-31T09:41:10;90779.34;;;12.57;53.76
46778;BME280;32536;47.128;8.746;2023-10-31T09:43:38;90770.84;;;12.59;53.38
46778;BME280;32536;47.128;8.746;2023-10-31T09:46:05;90776.00;;;12.53;52.97
46778;BME280;32536;47.128;8.746;2023-10-31T09:48:32;90776.44;;;12.52;53.40
46778;BME280;32536;47.128;8.746;2023-10-31T09:51:00;90763.03;;;12.52;52.44
46778;BME280;32536;47.128;8.746;2023-10-31T09:53:29;90767.78;;;12.47;52.53
46778;BME280;32536;47.128;8.746;2023-10-31T09:55:56;90763.75;;;12.52;52.99
46778;BME280;32536;47.128;8.746;2023-10-31T09:58:23;90766.78;;;12.54;52.62
46778;BME280;32536;47.128;8.746;2023-10-31T10:00:50;90766.66;;;12.58;52.84
46778;BME280;32536;47.128;8.746;2023-10-31T10:03:16;90770.19;;;12.55;52.54
46778;BME280;32536;47.128;8.746;2023-10-31T10:05:44;90764.41;;;12.56;53.14
46778;BME280;32536;47.128;8.746;2023-10-31T10:08:12;90772.34;;;12.60;52.86
46778;BME280;32536;47.128;8.746;2023-10-31T10:10:40;90770.72;;;12.62;52.47
46778;BME280;32536;47.128;8.746;2023-10-31T10:13:06;90766.97;;;12.60;52.87
46778;BME280;32536;47.128;8.746;2023-10-31T10:15:48;90757.41;;;12.59;50.22
46778;BME280;32536;47.128;8.746;2023-10-31T10:18:31;90755.91;;;12.58;51.19
46778;BME280;32536;47.128;8.746;2023-10-31T10:21:01;90757.28;;;12.62;52.80
46778;BME280;32536;47.128;8.746;2023-10-31T10:23:29;90765.09;;;12.70;52.70
46778;BME280;32536;47.128;8.746;2023-10-31T10:25:57;90763.78;;;12.74;52.23
46778;BME280;32536;47.128;8.746;2023-10-31T10:28:25;90774.53;;;12.74;52.07
46778;BME280;32536;47.128;8.746;2023-10-31T10:30:53;90768.97;;;12.69;51.84
46778;BME280;32536;47.128;8.746;2023-10-31T10:33:22;90781.50;;;12.72;52.63
46778;BME280;32536;47.128;8.746;2023-10-31T10:35:49;90777.94;;;12.75;52.38
46778;BME280;32536;47.128;8.746;2023-10-31T10:38:19;90773.94;;;12.79;52.08
46778;BME280;32536;47.128;8.746;2023-10-31T10:40:47;90778.63;;;12.88;52.22
46778;BME280;32536;47.128;8.746;2023-10-31T10:43:23;90773.13;;;12.92;50.94
46778;BME280;32536;47.128;8.746;2023-10-31T10:45:55;90773.44;;;12.94;52.00
46778;BME280;32536;47.128;8.746;2023-10-31T10:48:24;90776.28;;;13.00;52.07
46778;BME280;32536;47.128;8.746;2023-10-31T10:50:57;90779.75;;;13.00;51.79
46778;BME280;32536;47.128;8.746;2023-10-31T10:53:35;90772.72;;;13.03;51.02
46778;BME280;32536;47.128;8.746;2023-10-31T10:56:22;90771.09;;;13.05;51.63
46778;BME280;32536;47.128;8.746;2023-10-31T11:01:27;90771.00;;;13.18;51.91
46778;BME280;32536;47.128;8.746;2023-10-31T11:03:56;90771.31;;;13.20;51.98
46778;BME280;32536;47.128;8.746;2023-10-31T11:06:25;90776.09;;;13.25;52.41
46778;BME280;32536;47.128;8.746;2023-10-31T11:08:53;90783.63;;;13.31;52.20
46778;BME280;32536;47.128;8.746;2023-10-31T11:11:21;90784.22;;;13.35;52.27
46778;BME280;32536;47.128;8.746;2023-10-31T11:13:50;90773.34;;;13.38;51.75
46778;BME280;32536;47.128;8.746;2023-10-31T11:16:22;90777.22;;;13.37;49.14
46778;BME280;32536;47.128;8.746;2023-10-31T11:18:54;90784.13;;;13.38;51.39
46778;BME280;32536;47.128;8.746;2023-10-31T11:21:28;90785.16;;;13.41;51.19
46778;BME280;32536;47.128;8.746;2023-10-31T11:23:59;90785.63;;;13.39;48.87
46778;BME280;32536;47.128;8.746;2023-10-31T11:26:27;90791.09;;;13.36;51.58
46778;BME280;32536;47.128;8.746;2023-10-31T11:29:13;90784.53;;;13.37;48.28
46778;BME280;32536;47.128;8.746;2023-10-31T11:31:41;90783.50;;;13.34;50.72
46778;BME280;32536;47.128;8.746;2023-10-31T11:34:08;90795.84;;;13.32;51.13
46778;BME280;32536;47.128;8.746;2023-10-31T11:36:36;90800.19;;;13.29;50.91
46778;BME280;32536;47.128;8.746;2023-10-31T11:41:40;90796.31;;;13.30;51.46
46778;BME280;32536;47.128;8.746;2023-10-31T11:44:11;90796.94;;;13.34;51.66
46778;BME280;32536;47.128;8.746;2023-10-31T11:46:38;90792.63;;;13.37;51.13
46778;BME280;32536;47.128;8.746;2023-10-31T11:49:05;90806.06;;;13.37;51.30
46778;BME280;32536;47.128;8.746;2023-10-31T11:51:33;90811.34;;;13.40;51.55
46778;BME280;32536;47.128;8.746;2023-10-31T11:54:01;90812.38;;;13.43;51.37
46778;BME280;32536;47.128;8.746;2023-10-31T11:56:33;90814.94;;;13.47;51.22
46778;BME280;32536;47.128;8.746;2023-10-31T11:59:04;90812.41;;;13.52;51.00
46778;BME280;32536;47.128;8.746;2023-10-31T12:01:34;90827.22;;;13.57;51.40
46778;BME280;32536;47.128;8.746;2023-10-31T12:04:37;90826.03;;;13.58;49.54
46778;BME280;32536;47.128;8.746;2023-10-31T12:07:04;90823.41;;;13.67;51.53
46778;BME280;32536;47.128;8.746;2023-10-31T12:09:31;90826.38;;;13.69;51.21
46778;BME280;32536;47.128;8.746;2023-10-31T12:11:58;90829.25;;;13.75;51.51
46778;BME280;32536;47.128;8.746;2023-10-31T12:14:24;90828.66;;;13.80;51.59
46778;BME280;32536;47.128;8.746;2023-10-31T12:16:51;90827.34;;;13.85;51.27
46778;BME280;32536;47.128;8.746;2023-10-31T12:19:20;90826.28;;;13.82;50.46
46778;BME280;32536;47.128;8.746;2023-10-31T12:21:47;90824.63;;;13.85;51.56
46778;BME280;32536;47.128;8.746;2023-10-31T12:24:17;90825.25;;;13.89;51.63
46778;BME280;32536;47.128;8.746;2023-10-31T12:26:45;90830.75;;;13.85;51.32
46778;BME280;32536;47.128;8.746;2023-10-31T12:29:17;90830.63;;;13.80;50.56
46778;BME280;32536;47.128;8.746;2023-10-31T12:31:51;90841.19;;;13.74;50.73
46778;BME280;32536;47.128;8.746;2023-10-31T12:34:21;90848.81;;;13.66;51.22
46778;BME280;32536;47.128;8.746;2023-10-31T12:36:53;90844.00;;;13.61;51.55
46778;BME280;32536;47.128;8.746;2023-10-31T12:39:25;90843.38;;;13.57;51.48
46778;BME280;32536;47.128;8.746;2023-10-31T12:41:53;90847.13;;;13.59;51.97
46778;BME280;32536;47.128;8.746;2023-10-31T12:44:25;90848.16;;;13.53;51.72
46778;BME280;32536;47.128;8.746;2023-10-31T12:46:53;90843.81;;;13.55;52.05
46778;BME280;32536;47.128;8.746;2023-10-31T12:49:20;90858.78;;;13.56;51.91
46778;BME280;32536;47.128;8.746;2023-10-31T12:52:04;90855.47;;;13.52;52.03
46778;BME280;32536;47.128;8.746;2023-10-31T12:54:35;90858.28;;;13.49;52.29
46778;BME280;32536;47.128;8.746;2023-10-31T12:57:07;90848.88;;;13.44;52.69
46778;BME280;32536;47.128;8.746;2023-10-31T12:59:36;90852.91;;;13.49;52.51
46778;BME280;32536;47.128;8.746;2023-10-31T13:02:04;90852.75;;;13.43;52.55
46778;BME280;32536;47.128;8.746;2023-10-31T13:04:41;90862.56;;;13.37;52.91
46778;BME280;32536;47.128;8.746;2023-10-31T13:07:08;90861.41;;;13.38;52.86
46778;BME280;32536;47.128;8.746;2023-10-31T13:09:36;90862.97;;;13.35;53.25